sensor_id;sensor_type;location;lat;lon;timestamp;P1;durP1;ratioP1;P2;durP2;ratioP2
7501;SDS011;3792;47.740;7.606;2023-07-13T00:01:51;3.63;;;1.70;;
7501;SDS011;3792;47.740;7.606;2023-07-13T00:04:19;3.37;;;1.90;;
7501;SDS011;3792;47.740;7.606;2023-07-13T00:06:51;2.00;;;1.90;;
7501;SDS011;3792;47.740;7.606;2023-07-13T00:09:19;3.53;;;1.83;;
7501;SDS011;3792;47.740;7.606;2023-07-13T00:11:49;4.40;;;1.70;;
7501;SDS011;3792;47.740;7.606;2023-07-13T00:14:17;3.70;;;1.60;;
7501;SDS011;3792;47.740;7.606;2023-07-13T00:16:44;3.67;;;2.17;;
7501;SDS011;3792;47.740;7.606;2023-07-13T00:19:12;4.37;;;2.20;;
7501;SDS011;3792;47.740;7.606;2023-07-13T00:21:39;4.80;;;1.80;;
7501;SDS011;3792;47.740;7.606;2023-07-13T00:24:08;3.37;;;1.93;;
7501;SDS011;3792;47.740;7.606;2023-07-13T00:26:39;8.40;;;2.43;;
7501;SDS011;3792;47.740;7.606;2023-07-13T00:29:06;4.90;;;2.03;;
7501;SDS011;3792;47.740;7.606;2023-07-13T00:31:34;4.27;;;2.13;;
7501;SDS011;3792;47.740;7.606;2023-07-13T00:34:01;4.90;;;1.87;;
7501;SDS011;3792;47.740;7.606;2023-07-13T00:36:29;4.63;;;1.83;;
7501;SDS011;3792;47.740;7.606;2023-07-13T00:38:57;3.83;;;1.87;;
7501;SDS011;3792;47.740;7.606;2023-07-13T00:41:25;2.80;;;2.00;;
7501;SDS011;3792;47.740;7.606;2023-07-13T00:43:52;2.37;;;1.80;;
7501;SDS011;3792;47.740;7.606;2023-07-13T00:46:21;3.17;;;1.90;;
7501;SDS011;3792;47.740;7.606;2023-07-13T00:48:51;3.80;;;2.03;;
7501;SDS011;3792;47.740;7.606;2023-07-13T00:51:21;2.93;;;1.57;;
7501;SDS011;3792;47.740;7.606;2023-07-13T00:53:52;4.33;;;1.97;;
7501;SDS011;3792;47.740;7.606;2023-07-13T00:56:22;2.17;;;1.90;;
7501;SDS011;3792;47.740;7.606;2023-07-13T00:58:51;4.67;;;1.83;;
7501;SDS011;3792;47.740;7.606;2023-07-13T01:01:19;3.27;;;1.60;;
7501;SDS011;3792;47.740;7.606;2023-07-13T01:03:46;2.33;;;1.53;;
7501;SDS011;3792;47.740;7.606;2023-07-13T01:06:13;2.27;;;1.67;;
7501;SDS011;3792;47.740;7.606;2023-07-13T01:08:42;4.17;;;2.00;;
7501;SDS011;3792;47.740;7.606;2023-07-13T01:11:09;2.30;;;1.60;;
7501;SDS011;3792;47.740;7.606;2023-07-13T01:13:36;2.17;;;1.60;;
7501;SDS011;3792;47.740;7.606;2023-07-13T01:16:05;5.50;;;1.73;;
7501;SDS011;3792;47.740;7.606;2023-07-13T01:18:41;1.90;;;1.70;;
7501;SDS011;3792;47.740;7.606;2023-07-13T01:21:09;3.33;;;1.63;;
7501;SDS011;3792;47.740;7.606;2023-07-13T01:23:36;4.50;;;1.90;;
7501;SDS011;3792;47.740;7.606;2023-07-13T01:26:03;2.37;;;1.63;;
7501;SDS011;3792;47.740;7.606;2023-07-13T01:28:31;4.23;;;1.87;;
7501;SDS011;3792;47.740;7.606;2023-07-13T01:31:02;2.50;;;1.40;;
7501;SDS011;3792;47.740;7.606;2023-07-13T01:33:29;4.30;;;1.57;;
7501;SDS011;3792;47.740;7.606;2023-07-13T01:35:57;3.93;;;1.60;;
7501;SDS011;3792;47.740;7.606;2023-07-13T01:38:25;4.33;;;1.43;;
7501;SDS011;3792;47.740;7.606;2023-07-13T01:40:52;3.00;;;1.43;;
7501;SDS011;3792;47.740;7.606;2023-07-13T01:43:20;4.23;;;1.47;;
7501;SDS011;3792;47.740;7.606;2023-07-13T01:45:47;5.23;;;1.30;;
7501;SDS011;3792;47.740;7.606;2023-07-13T01:48:14;3.27;;;1.30;;
7501;SDS011;3792;47.740;7.606;2023-07-13T01:50:41;3.13;;;1.63;;
7501;SDS011;3792;47.740;7.606;2023-07-13T01:53:09;1.93;;;1.57;;
7501;SDS011;3792;47.740;7.606;2023-07-13T01:55:37;3.80;;;1.57;;
7501;SDS011;3792;47.740;7.606;2023-07-13T01:58:04;3.07;;;1.40;;
7501;SDS011;3792;47.740;7.606;2023-07-13T02:00:32;2.73;;;1.70;;
7501;SDS011;3792;47.740;7.606;2023-07-13T02:02:59;5.03;;;1.70;;
7501;SDS011;3792;47.740;7.606;2023-07-13T02:05:26;3.13;;;1.50;;
7501;SDS011;3792;47.740;7.606;2023-07-13T02:07:53;4.53;;;1.40;;
7501;SDS011;3792;47.740;7.606;2023-07-13T02:10:20;3.20;;;1.40;;
7501;SDS011;3792;47.740;7.606;2023-07-13T02:12:49;1.70;;;1.43;;
7501;SDS011;3792;47.740;7.606;2023-07-13T02:15:17;5.83;;;1.50;;
7501;SDS011;3792;47.740;7.606;2023-07-13T02:17:44;2.77;;;1.40;;
7501;SDS011;3792;47.740;7.606;2023-07-13T02:20:11;1.90;;;1.10;;
7501;SDS011;3792;47.740;7.606;2023-07-13T02:22:38;5.53;;;1.43;;
7501;SDS011;3792;47.740;7.606;2023-07-13T02:25:06;2.53;;;1.50;;
7501;SDS011;3792;47.740;7.606;2023-07-13T02:27:33;2.97;;;1.13;;
7501;SDS011;3792;47.740;7.606;2023-07-13T02:30:02;4.07;;;1.60;;
7501;SDS011;3792;47.740;7.606;2023-07-13T02:32:29;2.70;;;1.20;;
7501;SDS011;3792;47.740;7.606;2023-07-13T02:34:56;3.47;;;1.17;;
7501;SDS011;3792;47.740;7.606;2023-07-13T02:37:23;5.57;;;1.30;;
7501;SDS011;3792;47.740;7.606;2023-07-13T02:39:50;1.50;;;1.17;;
7501;SDS011;3792;47.740;7.606;2023-07-13T02:42:17;3.37;;;1.73;;
7501;SDS011;3792;47.740;7.606;2023-07-13T02:44:44;4.23;;;1.37;;
7501;SDS011;3792;47.740;7.606;2023-07-13T02:47:13;2.53;;;1.37;;
7501;SDS011;3792;47.740;7.606;2023-07-13T02:49:40;5.57;;;1.40;;
7501;SDS011;3792;47.740;7.606;2023-07-13T02:52:07;1.33;;;1.10;;
7501;SDS011;3792;47.740;7.606;2023-07-13T02:54:34;4.67;;;1.67;;
7501;SDS011;3792;47.740;7.606;2023-07-13T02:57:01;6.03;;;1.40;;
7501;SDS011;3792;47.740;7.606;2023-07-13T02:59:28;1.53;;;1.20;;
7501;SDS011;3792;47.740;7.606;2023-07-13T03:01:56;4.53;;;1.40;;
7501;SDS011;3792;47.740;7.606;2023-07-13T03:04:25;2.87;;;1.60;;
7501;SDS011;3792;47.740;7.606;2023-07-13T03:06:51;3.47;;;1.33;;
7501;SDS011;3792;47.740;7.606;2023-07-13T03:09:18;5.00;;;1.47;;
7501;SDS011;3792;47.740;7.606;2023-07-13T03:11:45;2.63;;;1.37;;
7501;SDS011;3792;47.740;7.606;2023-07-13T03:14:12;3.13;;;1.20;;
7501;SDS011;3792;47.740;7.606;2023-07-13T03:16:39;1.90;;;1.37;;
7501;SDS011;3792;47.740;7.606;2023-07-13T03:19:06;3.83;;;1.50;;
7501;SDS011;3792;47.740;7.606;2023-07-13T03:21:35;3.00;;;1.50;;
7501;SDS011;3792;47.740;7.606;2023-07-13T03:24:02;3.53;;;1.60;;
7501;SDS011;3792;47.740;7.606;2023-07-13T03:26:30;2.83;;;1.20;;
7501;SDS011;3792;47.740;7.606;2023-07-13T03:28:57;2.67;;;1.00;;
7501;SDS011;3792;47.740;7.606;2023-07-13T03:31:25;2.93;;;1.47;;
7501;SDS011;3792;47.740;7.606;2023-07-13T03:33:53;4.40;;;1.70;;
7501;SDS011;3792;47.740;7.606;2023-07-13T03:36:22;4.07;;;1.30;;
7501;SDS011;3792;47.740;7.606;2023-07-13T03:38:52;3.30;;;1.37;;
7501;SDS011;3792;47.740;7.606;2023-07-13T03:41:20;2.00;;;1.20;;
7501;SDS011;3792;47.740;7.606;2023-07-13T03:43:48;3.03;;;1.30;;
7501;SDS011;3792;47.740;7.606;2023-07-13T03:46:16;7.47;;;1.77;;
7501;SDS011;3792;47.740;7.606;2023-07-13T03:48:44;5.63;;;1.50;;
7501;SDS011;3792;47.740;7.606;2023-07-13T03:51:12;2.67;;;1.67;;
7501;SDS011;3792;47.740;7.606;2023-07-13T03:53:41;3.43;;;1.30;;
7501;SDS011;3792;47.740;7.606;2023-07-13T03:56:11;5.17;;;1.53;;
7501;SDS011;3792;47.740;7.606;2023-07-13T03:58:39;5.97;;;1.53;;
7501;SDS011;3792;47.740;7.606;2023-07-13T04:01:08;3.47;;;1.53;;
7501;SDS011;3792;47.740;7.606;2023-07-13T04:03:37;6.23;;;1.70;;
7501;SDS011;3792;47.740;7.606;2023-07-13T04:06:05;3.20;;;1.30;;
7501;SDS011;3792;47.740;7.606;2023-07-13T04:08:34;4.30;;;1.80;;
7501;SDS011;3792;47.740;7.606;2023-07-13T04:11:03;3.50;;;1.47;;
7501;SDS011;3792;47.740;7.606;2023-07-13T04:13:32;3.90;;;1.23;;
7501;SDS011;3792;47.740;7.606;2023-07-13T04:15:59;2.53;;;1.27;;
7501;SDS011;3792;47.740;7.606;2023-07-13T04:18:26;6.40;;;1.63;;
7501;SDS011;3792;47.740;7.606;2023-07-13T04:20:53;3.33;;;1.27;;
7501;SDS011;3792;47.740;7.606;2023-07-13T04:23:21;4.33;;;1.40;;
7501;SDS011;3792;47.740;7.606;2023-07-13T04:25:48;9.60;;;1.70;;
7501;SDS011;3792;47.740;7.606;2023-07-13T04:28:17;2.63;;;1.40;;
7501;SDS011;3792;47.740;7.606;2023-07-13T04:30:46;2.30;;;1.47;;
7501;SDS011;3792;47.740;7.606;2023-07-13T04:33:14;2.40;;;1.83;;
7501;SDS011;3792;47.740;7.606;2023-07-13T04:35:42;2.83;;;1.70;;
7501;SDS011;3792;47.740;7.606;2023-07-13T04:38:09;8.10;;;1.67;;
7501;SDS011;3792;47.740;7.606;2023-07-13T04:40:37;2.57;;;1.37;;
7501;SDS011;3792;47.740;7.606;2023-07-13T04:43:04;2.97;;;1.50;;
7501;SDS011;3792;47.740;7.606;2023-07-13T04:45:31;6.67;;;1.87;;
7501;SDS011;3792;47.740;7.606;2023-07-13T04:48:00;7.47;;;1.77;;
7501;SDS011;3792;47.740;7.606;2023-07-13T04:50:27;4.23;;;1.60;;
7501;SDS011;3792;47.740;7.606;2023-07-13T04:52:54;6.37;;;1.70;;
7501;SDS011;3792;47.740;7.606;2023-07-13T04:55:21;3.73;;;1.57;;
7501;SDS011;3792;47.740;7.606;2023-07-13T04:57:48;6.37;;;1.77;;
7501;SDS011;3792;47.740;7.606;2023-07-13T05:00:15;4.83;;;1.67;;
7501;SDS011;3792;47.740;7.606;2023-07-13T05:02:43;4.73;;;1.40;;
7501;SDS011;3792;47.740;7.606;2023-07-13T05:05:12;3.20;;;1.40;;
7501;SDS011;3792;47.740;7.606;2023-07-13T05:07:39;3.07;;;1.37;;
7501;SDS011;3792;47.740;7.606;2023-07-13T05:10:07;3.17;;;1.50;;
7501;SDS011;3792;47.740;7.606;2023-07-13T05:12:35;2.87;;;1.80;;
7501;SDS011;3792;47.740;7.606;2023-07-13T05:15:02;4.47;;;1.77;;
7501;SDS011;3792;47.740;7.606;2023-07-13T05:17:30;3.40;;;1.70;;
7501;SDS011;3792;47.740;7.606;2023-07-13T05:19:57;3.67;;;1.70;;
7501;SDS011;3792;47.740;7.606;2023-07-13T05:22:25;2.63;;;1.20;;
7501;SDS011;3792;47.740;7.606;2023-07-13T05:24:52;7.43;;;2.10;;
7501;SDS011;3792;47.740;7.606;2023-07-13T05:27:19;1.83;;;1.73;;
7501;SDS011;3792;47.740;7.606;2023-07-13T05:29:46;1.80;;;1.63;;
7501;SDS011;3792;47.740;7.606;2023-07-13T05:32:14;6.27;;;2.17;;
7501;SDS011;3792;47.740;7.606;2023-07-13T05:34:41;3.67;;;1.50;;
7501;SDS011;3792;47.740;7.606;2023-07-13T05:37:08;3.93;;;1.73;;
7501;SDS011;3792;47.740;7.606;2023-07-13T05:39:36;2.23;;;1.53;;
7501;SDS011;3792;47.740;7.606;2023-07-13T05:42:03;3.27;;;1.50;;
7501;SDS011;3792;47.740;7.606;2023-07-13T05:44:31;2.20;;;1.30;;
7501;SDS011;3792;47.740;7.606;2023-07-13T05:46:58;2.47;;;1.50;;
7501;SDS011;3792;47.740;7.606;2023-07-13T05:49:25;3.57;;;1.73;;
7501;SDS011;3792;47.740;7.606;2023-07-13T05:51:52;4.57;;;1.60;;
7501;SDS011;3792;47.740;7.606;2023-07-13T05:54:19;3.20;;;1.70;;
7501;SDS011;3792;47.740;7.606;2023-07-13T05:56:47;8.50;;;1.87;;
7501;SDS011;3792;47.740;7.606;2023-07-13T05:59:14;3.27;;;1.37;;
7501;SDS011;3792;47.740;7.606;2023-07-13T06:01:41;1.90;;;1.73;;
7501;SDS011;3792;47.740;7.606;2023-07-13T06:04:08;1.40;;;1.30;;
7501;SDS011;3792;47.740;7.606;2023-07-13T06:06:35;3.20;;;1.57;;
7501;SDS011;3792;47.740;7.606;2023-07-13T06:09:02;1.57;;;1.47;;
7501;SDS011;3792;47.740;7.606;2023-07-13T06:11:30;2.80;;;1.93;;
7501;SDS011;3792;47.740;7.606;2023-07-13T06:13:58;6.60;;;2.53;;
7501;SDS011;3792;47.740;7.606;2023-07-13T06:16:25;6.50;;;2.63;;
7501;SDS011;3792;47.740;7.606;2023-07-13T06:18:52;4.43;;;2.50;;
7501;SDS011;3792;47.740;7.606;2023-07-13T06:21:20;3.10;;;2.47;;
7501;SDS011;3792;47.740;7.606;2023-07-13T06:23:49;3.87;;;2.17;;
7501;SDS011;3792;47.740;7.606;2023-07-13T06:26:18;5.20;;;1.70;;
7501;SDS011;3792;47.740;7.606;2023-07-13T06:28:47;2.40;;;1.70;;
7501;SDS011;3792;47.740;7.606;2023-07-13T06:31:16;4.50;;;1.60;;
7501;SDS011;3792;47.740;7.606;2023-07-13T06:33:43;4.77;;;1.80;;
7501;SDS011;3792;47.740;7.606;2023-07-13T06:36:10;3.33;;;1.87;;
7501;SDS011;3792;47.740;7.606;2023-07-13T06:38:37;5.37;;;1.80;;
7501;SDS011;3792;47.740;7.606;2023-07-13T06:41:05;3.13;;;2.00;;
7501;SDS011;3792;47.740;7.606;2023-07-13T06:43:33;7.57;;;1.90;;
7501;SDS011;3792;47.740;7.606;2023-07-13T06:46:00;2.20;;;2.00;;
7501;SDS011;3792;47.740;7.606;2023-07-13T06:48:29;6.03;;;2.00;;
7501;SDS011;3792;47.740;7.606;2023-07-13T06:50:56;4.27;;;1.90;;
7501;SDS011;3792;47.740;7.606;2023-07-13T06:53:23;2.33;;;1.80;;
7501;SDS011;3792;47.740;7.606;2023-07-13T06:55:51;1.73;;;1.50;;
7501;SDS011;3792;47.740;7.606;2023-07-13T06:58:18;3.70;;;2.03;;
7501;SDS011;3792;47.740;7.606;2023-07-13T07:00:46;3.33;;;1.53;;
7501;SDS011;3792;47.740;7.606;2023-07-13T07:03:16;3.90;;;1.50;;
7501;SDS011;3792;47.740;7.606;2023-07-13T07:05:44;3.13;;;1.60;;
7501;SDS011;3792;47.740;7.606;2023-07-13T07:08:12;2.77;;;1.50;;
7501;SDS011;3792;47.740;7.606;2023-07-13T07:10:40;2.93;;;1.60;;
7501;SDS011;3792;47.740;7.606;2023-07-13T07:13:08;4.83;;;1.77;;
7501;SDS011;3792;47.740;7.606;2023-07-13T07:15:35;4.70;;;1.70;;
7501;SDS011;3792;47.740;7.606;2023-07-13T07:18:02;6.13;;;1.67;;
7501;SDS011;3792;47.740;7.606;2023-07-13T07:20:29;2.67;;;1.60;;
7501;SDS011;3792;47.740;7.606;2023-07-13T07:22:59;3.07;;;1.70;;
7501;SDS011;3792;47.740;7.606;2023-07-13T07:25:26;2.27;;;1.80;;
7501;SDS011;3792;47.740;7.606;2023-07-13T07:27:56;1.87;;;1.30;;
7501;SDS011;3792;47.740;7.606;2023-07-13T07:30:24;6.03;;;1.83;;
7501;SDS011;3792;47.740;7.606;2023-07-13T07:32:51;5.30;;;1.80;;
7501;SDS011;3792;47.740;7.606;2023-07-13T07:35:18;2.67;;;1.67;;
7501;SDS011;3792;47.740;7.606;2023-07-13T07:37:45;3.43;;;2.03;;
7501;SDS011;3792;47.740;7.606;2023-07-13T07:40:14;5.63;;;1.80;;
7501;SDS011;3792;47.740;7.606;2023-07-13T07:42:41;3.27;;;1.60;;
7501;SDS011;3792;47.740;7.606;2023-07-13T07:45:08;2.27;;;1.60;;
7501;SDS011;3792;47.740;7.606;2023-07-13T07:47:36;1.40;;;1.30;;
7501;SDS011;3792;47.740;7.606;2023-07-13T07:50:04;4.03;;;1.57;;
7501;SDS011;3792;47.740;7.606;2023-07-13T07:52:32;4.40;;;1.50;;
7501;SDS011;3792;47.740;7.606;2023-07-13T07:54:59;6.47;;;1.87;;
7501;SDS011;3792;47.740;7.606;2023-07-13T07:57:27;3.27;;;1.87;;
7501;SDS011;3792;47.740;7.606;2023-07-13T07:59:55;2.67;;;1.63;;
7501;SDS011;3792;47.740;7.606;2023-07-13T08:02:22;4.20;;;1.50;;
7501;SDS011;3792;47.740;7.606;2023-07-13T08:04:49;4.50;;;1.67;;
7501;SDS011;3792;47.740;7.606;2023-07-13T08:07:16;3.07;;;1.53;;
7501;SDS011;3792;47.740;7.606;2023-07-13T08:09:43;5.77;;;1.73;;
7501;SDS011;3792;47.740;7.606;2023-07-13T08:12:11;4.70;;;1.73;;
7501;SDS011;3792;47.740;7.606;2023-07-13T08:14:40;2.90;;;1.60;;
7501;SDS011;3792;47.740;7.606;2023-07-13T08:17:07;5.87;;;1.60;;
7501;SDS011;3792;47.740;7.606;2023-07-13T08:19:34;4.10;;;1.60;;
7501;SDS011;3792;47.740;7.606;2023-07-13T08:22:01;6.10;;;1.70;;
7501;SDS011;3792;47.740;7.606;2023-07-13T08:24:28;3.40;;;1.60;;
7501;SDS011;3792;47.740;7.606;2023-07-13T08:26:55;4.73;;;1.70;;
7501;SDS011;3792;47.740;7.606;2023-07-13T08:29:22;4.33;;;1.40;;
7501;SDS011;3792;47.740;7.606;2023-07-13T08:31:51;2.50;;;1.50;;
7501;SDS011;3792;47.740;7.606;2023-07-13T08:34:18;7.03;;;1.90;;
7501;SDS011;3792;47.740;7.606;2023-07-13T08:36:45;5.20;;;1.50;;
7501;SDS011;3792;47.740;7.606;2023-07-13T08:39:13;6.10;;;1.80;;
7501;SDS011;3792;47.740;7.606;2023-07-13T08:41:40;4.00;;;1.47;;
7501;SDS011;3792;47.740;7.606;2023-07-13T08:44:07;4.63;;;1.67;;
7501;SDS011;3792;47.740;7.606;2023-07-13T08:46:46;4.53;;;1.47;;
7501;SDS011;3792;47.740;7.606;2023-07-13T08:49:17;4.13;;;1.33;;
7501;SDS011;3792;47.740;7.606;2023-07-13T08:51:50;4.00;;;1.90;;
7501;SDS011;3792;47.740;7.606;2023-07-13T08:54:23;1.70;;;1.33;;
7501;SDS011;3792;47.740;7.606;2023-07-13T08:56:56;2.70;;;1.60;;
7501;SDS011;3792;47.740;7.606;2023-07-13T08:59:26;2.23;;;1.50;;
7501;SDS011;3792;47.740;7.606;2023-07-13T09:02:13;3.23;;;1.60;;
7501;SDS011;3792;47.740;7.606;2023-07-13T09:04:53;3.27;;;1.40;;
7501;SDS011;3792;47.740;7.606;2023-07-13T09:07:28;3.50;;;1.57;;
7501;SDS011;3792;47.740;7.606;2023-07-13T09:10:06;3.53;;;1.50;;
7501;SDS011;3792;47.740;7.606;2023-07-13T09:12:44;3.13;;;1.50;;
7501;SDS011;3792;47.740;7.606;2023-07-13T09:15:24;3.00;;;1.50;;
7501;SDS011;3792;47.740;7.606;2023-07-13T09:17:54;1.30;;;1.20;;
7501;SDS011;3792;47.740;7.606;2023-07-13T09:20:27;5.10;;;1.77;;
7501;SDS011;3792;47.740;7.606;2023-07-13T09:22:58;6.13;;;1.50;;
7501;SDS011;3792;47.740;7.606;2023-07-13T09:25:29;4.10;;;1.30;;
7501;SDS011;3792;47.740;7.606;2023-07-13T09:27:58;2.23;;;1.20;;
7501;SDS011;3792;47.740;7.606;2023-07-13T09:30:36;4.00;;;1.43;;
7501;SDS011;3792;47.740;7.606;2023-07-13T09:33:06;3.90;;;0.97;;
7501;SDS011;3792;47.740;7.606;2023-07-13T09:35:36;4.80;;;1.07;;
7501;SDS011;3792;47.740;7.606;2023-07-13T09:38:10;3.20;;;1.00;;
7501;SDS011;3792;47.740;7.606;2023-07-13T09:40:40;4.10;;;1.37;;
7501;SDS011;3792;47.740;7.606;2023-07-13T09:43:15;4.60;;;1.50;;
7501;SDS011;3792;47.740;7.606;2023-07-13T09:45:45;3.17;;;1.07;;
7501;SDS011;3792;47.740;7.606;2023-07-13T09:48:14;3.27;;;1.20;;
7501;SDS011;3792;47.740;7.606;2023-07-13T09:50:44;1.33;;;1.10;;
7501;SDS011;3792;47.740;7.606;2023-07-13T09:53:11;3.53;;;1.30;;
7501;SDS011;3792;47.740;7.606;2023-07-13T09:55:42;1.60;;;1.33;;
7501;SDS011;3792;47.740;7.606;2023-07-13T09:58:12;1.60;;;0.97;;
7501;SDS011;3792;47.740;7.606;2023-07-13T10:00:41;1.63;;;0.90;;
7501;SDS011;3792;47.740;7.606;2023-07-13T10:03:16;4.53;;;1.13;;
7501;SDS011;3792;47.740;7.606;2023-07-13T10:05:47;2.90;;;1.23;;
7501;SDS011;3792;47.740;7.606;2023-07-13T10:08:17;1.63;;;1.30;;
7501;SDS011;3792;47.740;7.606;2023-07-13T10:10:47;2.70;;;1.10;;
7501;SDS011;3792;47.740;7.606;2023-07-13T10:13:31;5.40;;;1.40;;
7501;SDS011;3792;47.740;7.606;2023-07-13T10:16:03;1.47;;;1.10;;
7501;SDS011;3792;47.740;7.606;2023-07-13T10:18:35;0.90;;;0.80;;
7501;SDS011;3792;47.740;7.606;2023-07-13T10:21:15;2.53;;;1.20;;
7501;SDS011;3792;47.740;7.606;2023-07-13T10:23:44;2.00;;;1.30;;
7501;SDS011;3792;47.740;7.606;2023-07-13T10:26:18;4.30;;;1.23;;
7501;SDS011;3792;47.740;7.606;2023-07-13T10:28:52;3.43;;;1.20;;
7501;SDS011;3792;47.740;7.606;2023-07-13T10:31:25;1.03;;;0.93;;
7501;SDS011;3792;47.740;7.606;2023-07-13T10:33:52;1.80;;;1.10;;
7501;SDS011;3792;47.740;7.606;2023-07-13T10:36:32;1.77;;;1.13;;
7501;SDS011;3792;47.740;7.606;2023-07-13T10:39:05;3.20;;;1.00;;
7501;SDS011;3792;47.740;7.606;2023-07-13T10:41:36;1.70;;;1.00;;
7501;SDS011;3792;47.740;7.606;2023-07-13T10:44:07;2.70;;;1.30;;
7501;SDS011;3792;47.740;7.606;2023-07-13T10:46:44;2.40;;;1.20;;
7501;SDS011;3792;47.740;7.606;2023-07-13T10:49:12;1.40;;;1.30;;
7501;SDS011;3792;47.740;7.606;2023-07-13T10:51:42;1.57;;;1.33;;
7501;SDS011;3792;47.740;7.606;2023-07-13T10:54:19;2.53;;;1.33;;
7501;SDS011;3792;47.740;7.606;2023-07-13T10:56:53;1.10;;;1.00;;
7501;SDS011;3792;47.740;7.606;2023-07-13T10:59:38;2.73;;;1.00;;
7501;SDS011;3792;47.740;7.606;2023-07-13T11:02:10;1.43;;;1.10;;
7501;SDS011;3792;47.740;7.606;2023-07-13T11:04:42;2.23;;;1.30;;
7501;SDS011;3792;47.740;7.606;2023-07-13T11:07:19;2.87;;;1.27;;
7501;SDS011;3792;47.740;7.606;2023-07-13T11:09:49;3.10;;;1.20;;
7501;SDS011;3792;47.740;7.606;2023-07-13T11:15:26;2.10;;;1.23;;
7501;SDS011;3792;47.740;7.606;2023-07-13T11:17:57;3.63;;;1.30;;
7501;SDS011;3792;47.740;7.606;2023-07-13T11:20:33;3.10;;;1.20;;
7501;SDS011;3792;47.740;7.606;2023-07-13T11:25:56;3.30;;;1.10;;
7501;SDS011;3792;47.740;7.606;2023-07-13T11:28:25;1.60;;;0.93;;
7501;SDS011;3792;47.740;7.606;2023-07-13T11:31:02;3.83;;;1.13;;
7501;SDS011;3792;47.740;7.606;2023-07-13T11:33:55;1.33;;;1.23;;
7501;SDS011;3792;47.740;7.606;2023-07-13T11:36:27;4.47;;;1.27;;
7501;SDS011;3792;47.740;7.606;2023-07-13T11:39:05;1.70;;;1.30;;
7501;SDS011;3792;47.740;7.606;2023-07-13T11:41:43;1.73;;;1.33;;
7501;SDS011;3792;47.740;7.606;2023-07-13T11:44:13;3.53;;;1.30;;
7501;SDS011;3792;47.740;7.606;2023-07-13T11:46:46;4.20;;;1.10;;
7501;SDS011;3792;47.740;7.606;2023-07-13T11:49:15;2.70;;;1.17;;
7501;SDS011;3792;47.740;7.606;2023-07-13T11:51:43;2.00;;;1.37;;
7501;SDS011;3792;47.740;7.606;2023-07-13T11:54:20;4.20;;;1.20;;
7501;SDS011;3792;47.740;7.606;2023-07-13T11:56:52;1.93;;;1.40;;
7501;SDS011;3792;47.740;7.606;2023-07-13T11:59:22;2.17;;;1.20;;
7501;SDS011;3792;47.740;7.606;2023-07-13T12:01:50;2.37;;;1.10;;
7501;SDS011;3792;47.740;7.606;2023-07-13T12:04:22;2.97;;;1.20;;
7501;SDS011;3792;47.740;7.606;2023-07-13T12:06:55;4.60;;;1.40;;
7501;SDS011;3792;47.740;7.606;2023-07-13T12:09:26;2.00;;;1.30;;
7501;SDS011;3792;47.740;7.606;2023-07-13T12:11:56;3.13;;;1.30;;
7501;SDS011;3792;47.740;7.606;2023-07-13T12:14:25;3.83;;;1.30;;
7501;SDS011;3792;47.740;7.606;2023-07-13T12:16:52;4.30;;;1.40;;
7501;SDS011;3792;47.740;7.606;2023-07-13T12:19:21;4.93;;;1.47;;
7501;SDS011;3792;47.740;7.606;2023-07-13T12:21:50;2.47;;;1.23;;
7501;SDS011;3792;47.740;7.606;2023-07-13T12:24:20;2.57;;;1.47;;
7501;SDS011;3792;47.740;7.606;2023-07-13T12:26:53;7.60;;;1.47;;
7501;SDS011;3792;47.740;7.606;2023-07-13T12:29:26;3.37;;;1.53;;
7501;SDS011;3792;47.740;7.606;2023-07-13T12:31:53;3.37;;;1.30;;
7501;SDS011;3792;47.740;7.606;2023-07-13T12:34:23;2.33;;;1.20;;
7501;SDS011;3792;47.740;7.606;2023-07-13T12:36:52;3.40;;;1.40;;
7501;SDS011;3792;47.740;7.606;2023-07-13T12:39:21;6.67;;;1.30;;
7501;SDS011;3792;47.740;7.606;2023-07-13T12:41:51;4.73;;;1.47;;
7501;SDS011;3792;47.740;7.606;2023-07-13T12:44:35;2.07;;;1.10;;
7501;SDS011;3792;47.740;7.606;2023-07-13T12:47:12;3.40;;;1.30;;
7501;SDS011;3792;47.740;7.606;2023-07-13T12:49:42;3.50;;;1.40;;
7501;SDS011;3792;47.740;7.606;2023-07-13T12:52:16;1.90;;;1.43;;
7501;SDS011;3792;47.740;7.606;2023-07-13T12:54:53;3.63;;;1.43;;
7501;SDS011;3792;47.740;7.606;2023-07-13T12:57:23;2.43;;;1.27;;
7501;SDS011;3792;47.740;7.606;2023-07-13T12:59:52;1.47;;;1.13;;
7501;SDS011;3792;47.740;7.606;2023-07-13T13:02:26;1.70;;;1.40;;
7501;SDS011;3792;47.740;7.606;2023-07-13T13:04:57;1.63;;;1.00;;
7501;SDS011;3792;47.740;7.606;2023-07-13T13:07:24;2.33;;;1.17;;
7501;SDS011;3792;47.740;7.606;2023-07-13T13:09:52;3.80;;;1.40;;
7501;SDS011;3792;47.740;7.606;2023-07-13T13:12:20;2.90;;;1.40;;
7501;SDS011;3792;47.740;7.606;2023-07-13T13:14:50;2.97;;;1.30;;
7501;SDS011;3792;47.740;7.606;2023-07-13T13:17:18;5.70;;;1.20;;
7501;SDS011;3792;47.740;7.606;2023-07-13T13:19:49;1.27;;;1.10;;
7501;SDS011;3792;47.740;7.606;2023-07-13T13:22:18;3.40;;;1.47;;
7501;SDS011;3792;47.740;7.606;2023-07-13T13:24:45;1.93;;;1.13;;
7501;SDS011;3792;47.740;7.606;2023-07-13T13:27:14;3.57;;;1.37;;
7501;SDS011;3792;47.740;7.606;2023-07-13T13:29:43;3.30;;;1.20;;
7501;SDS011;3792;47.740;7.606;2023-07-13T13:32:13;1.63;;;1.20;;
7501;SDS011;3792;47.740;7.606;2023-07-13T13:34:41;1.17;;;1.10;;
7501;SDS011;3792;47.740;7.606;2023-07-13T13:37:12;2.57;;;1.13;;
7501;SDS011;3792;47.740;7.606;2023-07-13T13:39:44;2.20;;;1.27;;
7501;SDS011;3792;47.740;7.606;2023-07-13T13:42:12;1.97;;;1.10;;
7501;SDS011;3792;47.740;7.606;2023-07-13T13:44:39;1.70;;;1.10;;
7501;SDS011;3792;47.740;7.606;2023-07-13T13:47:12;4.60;;;1.30;;
7501;SDS011;3792;47.740;7.606;2023-07-13T13:49:53;2.97;;;1.20;;
7501;SDS011;3792;47.740;7.606;2023-07-13T13:52:20;1.20;;;1.03;;
7501;SDS011;3792;47.740;7.606;2023-07-13T13:54:48;2.30;;;1.30;;
7501;SDS011;3792;47.740;7.606;2023-07-13T13:57:15;1.70;;;1.10;;
7501;SDS011;3792;47.740;7.606;2023-07-13T13:59:42;1.10;;;1.00;;
7501;SDS011;3792;47.740;7.606;2023-07-13T14:02:15;2.43;;;1.37;;
7501;SDS011;3792;47.740;7.606;2023-07-13T14:04:53;4.10;;;1.40;;
7501;SDS011;3792;47.740;7.606;2023-07-13T14:07:24;2.67;;;1.10;;
7501;SDS011;3792;47.740;7.606;2023-07-13T14:09:52;2.53;;;1.47;;
7501;SDS011;3792;47.740;7.606;2023-07-13T14:12:19;2.37;;;1.50;;
7501;SDS011;3792;47.740;7.606;2023-07-13T14:14:46;2.67;;;1.40;;
7501;SDS011;3792;47.740;7.606;2023-07-13T14:17:17;1.63;;;1.37;;
7501;SDS011;3792;47.740;7.606;2023-07-13T14:19:49;5.63;;;1.40;;
7501;SDS011;3792;47.740;7.606;2023-07-13T14:22:22;3.00;;;1.50;;
7501;SDS011;3792;47.740;7.606;2023-07-13T14:24:51;2.57;;;1.30;;
7501;SDS011;3792;47.740;7.606;2023-07-13T14:27:19;2.07;;;1.50;;
7501;SDS011;3792;47.740;7.606;2023-07-13T14:29:46;1.20;;;1.10;;
7501;SDS011;3792;47.740;7.606;2023-07-13T14:32:13;1.40;;;1.27;;
7501;SDS011;3792;47.740;7.606;2023-07-13T14:34:40;3.20;;;1.17;;
7501;SDS011;3792;47.740;7.606;2023-07-13T14:37:11;1.30;;;1.10;;
7501;SDS011;3792;47.740;7.606;2023-07-13T14:39:40;2.40;;;1.13;;
7501;SDS011;3792;47.740;7.606;2023-07-13T14:42:08;2.07;;;1.13;;
7501;SDS011;3792;47.740;7.606;2023-07-13T14:44:37;1.80;;;1.30;;
7501;SDS011;3792;47.740;7.606;2023-07-13T14:47:05;4.57;;;1.40;;
7501;SDS011;3792;47.740;7.606;2023-07-13T14:49:33;2.50;;;1.50;;
7501;SDS011;3792;47.740;7.606;2023-07-13T14:52:05;4.23;;;1.40;;
7501;SDS011;3792;47.740;7.606;2023-07-13T14:54:38;6.00;;;1.60;;
7501;SDS011;3792;47.740;7.606;2023-07-13T14:57:09;2.77;;;1.10;;
7501;SDS011;3792;47.740;7.606;2023-07-13T14:59:36;2.70;;;1.30;;
7501;SDS011;3792;47.740;7.606;2023-07-13T15:02:08;4.97;;;1.50;;
7501;SDS011;3792;47.740;7.606;2023-07-13T15:04:50;4.70;;;1.13;;
7501;SDS011;3792;47.740;7.606;2023-07-13T15:07:17;2.50;;;1.10;;
7501;SDS011;3792;47.740;7.606;2023-07-13T15:09:47;2.50;;;1.27;;
7501;SDS011;3792;47.740;7.606;2023-07-13T15:12:15;2.40;;;1.30;;
7501;SDS011;3792;47.740;7.606;2023-07-13T15:14:43;3.43;;;1.30;;
7501;SDS011;3792;47.740;7.606;2023-07-13T15:17:23;2.53;;;1.30;;
7501;SDS011;3792;47.740;7.606;2023-07-13T15:20:03;4.27;;;1.30;;
7501;SDS011;3792;47.740;7.606;2023-07-13T15:22:41;3.97;;;1.40;;
7501;SDS011;3792;47.740;7.606;2023-07-13T15:25:12;1.50;;;1.20;;
7501;SDS011;3792;47.740;7.606;2023-07-13T15:27:43;5.03;;;1.93;;
7501;SDS011;3792;47.740;7.606;2023-07-13T15:30:10;3.00;;;1.23;;
7501;SDS011;3792;47.740;7.606;2023-07-13T15:32:39;2.73;;;1.30;;
7501;SDS011;3792;47.740;7.606;2023-07-13T15:35:12;1.67;;;1.20;;